createdAt,value
2019-02-23T00:00:14.973Z,1.80
2019-02-23T00:02:47.893Z,1.80
2019-02-23T00:05:20.945Z,1.70
2019-02-23T00:07:53.799Z,1.60
2019-02-23T00:10:26.745Z,1.50
2019-02-23T00:12:59.585Z,1.50
2019-02-23T00:15:32.844Z,1.50
2019-02-23T00:18:05.756Z,1.30
2019-02-23T00:20:38.748Z,1.20
2019-02-23T00:23:11.466Z,1.00
2019-02-23T00:25:44.724Z,1.10
2019-02-23T00:28:17.806Z,1.10
2019-02-23T00:30:50.667Z,1.10
2019-02-23T00:33:23.687Z,1.00
2019-02-23T00:35:57.145Z,0.80
2019-02-23T00:38:30.485Z,0.80
2019-02-23T00:41:03.325Z,0.70
2019-02-23T00:43:36.250Z,0.70
2019-02-23T00:46:09.625Z,0.80
2019-02-23T00:48:42.465Z,0.70
2019-02-23T00:51:15.625Z,0.70
2019-02-23T00:53:48.604Z,0.70
2019-02-23T00:56:21.545Z,0.60
2019-02-23T00:58:54.464Z,0.70
2019-02-23T01:01:27.326Z,0.50
2019-02-23T01:04:00.186Z,0.60
2019-02-23T01:06:33.846Z,0.50
2019-02-23T01:09:06.764Z,0.30
2019-02-23T01:11:39.825Z,0.20
2019-02-23T01:14:12.926Z,0.40
2019-02-23T01:16:45.925Z,0.20
2019-02-23T01:19:18.905Z,0.20
2019-02-23T01:21:51.845Z,0.10
2019-02-23T01:24:24.869Z,0.20
2019-02-23T01:26:57.829Z,0.10
2019-02-23T01:29:30.605Z,0.20
2019-02-23T01:32:03.412Z,0.10
2019-02-23T01:34:36.625Z,0.20
2019-02-23T01:37:09.824Z,0.20
2019-02-23T01:39:43.124Z,0.10
2019-02-23T01:42:15.964Z,0.10
2019-02-23T01:44:49.265Z,0.10
2019-02-23T01:47:22.465Z,-0.30
2019-02-23T01:49:58.824Z,-0.50
2019-02-23T01:52:30.185Z,-0.30
2019-02-23T01:55:02.994Z,-0.40
2019-02-23T01:57:35.825Z,-0.20
2019-02-23T02:00:09.205Z,-0.20
2019-02-23T02:02:42.865Z,0.00
2019-02-23T02:05:16.025Z,-0.10
2019-02-23T02:07:49.009Z,-0.30
2019-02-23T02:10:22.235Z,-0.30
2019-02-23T02:12:54.986Z,-0.30
2019-02-23T02:15:28.225Z,-0.40
2019-02-23T02:18:00.965Z,-0.30
2019-02-23T02:20:33.925Z,-0.40
2019-02-23T02:23:07.044Z,-0.20
2019-02-23T02:25:40.005Z,-0.20
2019-02-23T02:28:12.909Z,-0.20
2019-02-23T02:30:45.806Z,-0.30
2019-02-23T02:33:18.785Z,-0.30
2019-02-23T02:35:51.743Z,-0.30
2019-02-23T02:38:24.507Z,-0.40
2019-02-23T02:40:57.785Z,-0.50
2019-02-23T02:43:30.649Z,-0.50
2019-02-23T02:46:03.625Z,-0.50
2019-02-23T02:48:36.910Z,-0.70
2019-02-23T02:51:10.464Z,-0.70
2019-02-23T02:53:43.465Z,-0.70
2019-02-23T02:56:16.504Z,-0.70
2019-02-23T02:58:49.366Z,-0.70
2019-02-23T03:01:22.485Z,-0.70
2019-02-23T03:03:55.638Z,-0.70
2019-02-23T03:06:28.666Z,-0.80
2019-02-23T03:09:01.490Z,-0.80
2019-02-23T03:11:34.326Z,-0.80
2019-02-23T03:14:07.445Z,-1.00
2019-02-23T03:16:40.388Z,-0.80
2019-02-23T03:19:13.725Z,-0.70
2019-02-23T03:21:46.944Z,-1.00
2019-02-23T03:24:19.805Z,-0.90
2019-02-23T03:26:52.965Z,-1.00
2019-02-23T03:29:25.846Z,-1.20
2019-02-23T03:32:00.550Z,-1.20
2019-02-23T03:34:33.485Z,-1.00
2019-02-23T03:37:07.564Z,-1.00
2019-02-23T03:39:40.586Z,-1.00
2019-02-23T03:42:14.048Z,-1.00
2019-02-23T03:44:49.385Z,-0.90
2019-02-23T03:47:22.326Z,-1.10
2019-02-23T03:49:55.207Z,-1.30
2019-02-23T03:52:28.145Z,-1.40
2019-02-23T03:55:01.105Z,-1.50
2019-02-23T03:57:34.068Z,-1.40
2019-02-23T04:00:07.026Z,-1.20
2019-02-23T04:02:40.165Z,-1.00
2019-02-23T04:05:13.725Z,-1.20
2019-02-23T04:07:46.665Z,-1.00
2019-02-23T04:10:19.731Z,-1.00
2019-02-23T04:12:52.586Z,-1.00
2019-02-23T04:15:25.406Z,-1.10
2019-02-23T04:17:58.425Z,-1.10
2019-02-23T04:20:31.406Z,-1.00
2019-02-23T04:23:04.405Z,-1.10
2019-02-23T04:25:37.869Z,-1.10
2019-02-23T04:28:10.745Z,-1.10
2019-02-23T04:30:43.688Z,-1.20
2019-02-23T04:33:16.669Z,-1.20
2019-02-23T04:35:49.885Z,-1.30
2019-02-23T04:38:22.968Z,-1.40
2019-02-23T04:40:56.129Z,-1.20
2019-02-23T04:43:29.191Z,-1.20
2019-02-23T04:46:02.366Z,-1.30
2019-02-23T04:48:35.686Z,-1.30
2019-02-23T04:51:14.375Z,-1.40
2019-02-23T04:53:43.545Z,-1.40
2019-02-23T04:56:16.744Z,-1.40
2019-02-23T04:58:49.687Z,-1.40
2019-02-23T05:01:22.624Z,-1.30
2019-02-23T05:03:55.367Z,-1.30
2019-02-23T05:06:28.406Z,-1.40
2019-02-23T05:09:01.647Z,-1.40
2019-02-23T05:11:34.864Z,-1.40
2019-02-23T05:14:07.867Z,-1.50
2019-02-23T05:16:40.805Z,-1.50
2019-02-23T05:19:14.009Z,-1.50
2019-02-23T05:21:46.925Z,-1.60
2019-02-23T05:24:20.585Z,-1.60
2019-02-23T05:26:53.605Z,-1.60
2019-02-23T05:29:26.591Z,-1.60
2019-02-23T05:31:59.545Z,-1.60
2019-02-23T05:34:32.646Z,-1.60
2019-02-23T05:37:05.392Z,-1.50
2019-02-23T05:39:38.504Z,-1.50
2019-02-23T05:42:11.508Z,-1.70
2019-02-23T05:44:44.466Z,-1.70
2019-02-23T05:47:17.286Z,-1.70
2019-02-23T05:49:50.186Z,-1.80
2019-02-23T05:52:23.105Z,-2.00
2019-02-23T05:54:55.964Z,-2.00
2019-02-23T05:57:28.988Z,-2.20
2019-02-23T06:00:01.889Z,-2.10
2019-02-23T06:02:34.903Z,-1.90
2019-02-23T06:05:07.763Z,-2.20
2019-02-23T06:07:41.305Z,-2.20
2019-02-23T06:10:14.394Z,-2.30
2019-02-23T06:12:47.266Z,-2.40
2019-02-23T06:15:20.246Z,-2.10
2019-02-23T06:17:53.425Z,-2.00
2019-02-23T06:20:26.405Z,-2.00
2019-02-23T06:22:59.587Z,-1.90
2019-02-23T06:25:32.337Z,-1.70
2019-02-23T06:28:05.292Z,-1.60
2019-02-23T06:30:38.165Z,-1.60
2019-02-23T06:33:12.645Z,-1.60
2019-02-23T06:35:45.686Z,-1.70
2019-02-23T06:38:18.627Z,-1.80
2019-02-23T06:40:51.626Z,-1.80
2019-02-23T06:43:24.654Z,-1.90
2019-02-23T06:45:57.545Z,-1.80
2019-02-23T06:48:30.508Z,-1.70
2019-02-23T06:51:03.512Z,-1.60
2019-02-23T06:53:36.364Z,-1.70
2019-02-23T06:56:09.285Z,-1.80
2019-02-23T06:58:42.249Z,-1.90
2019-02-23T07:01:15.306Z,-1.80
2019-02-23T07:03:48.669Z,-1.90
2019-02-23T07:06:21.590Z,-2.10
2019-02-23T07:08:54.506Z,-2.20
2019-02-23T07:11:27.944Z,-2.20
2019-02-23T07:14:00.749Z,-2.20
2019-02-23T07:16:33.710Z,-2.10
2019-02-23T07:19:06.396Z,-2.10
2019-02-23T07:21:39.351Z,-2.40
2019-02-23T07:24:12.224Z,-2.20
2019-02-23T07:26:45.068Z,-2.70
2019-02-23T07:29:17.868Z,-2.50
2019-02-23T07:31:50.996Z,-2.50
2019-02-23T07:34:23.808Z,-2.80
2019-02-23T07:36:57.024Z,-2.70
2019-02-23T07:39:29.787Z,-2.80
2019-02-23T07:42:02.646Z,-2.90
2019-02-23T07:44:35.770Z,-2.70
2019-02-23T07:47:08.644Z,-2.40
2019-02-23T07:49:41.765Z,-2.20
2019-02-23T07:52:14.577Z,-2.20
2019-02-23T07:54:48.046Z,-2.30
2019-02-23T07:57:21.368Z,-2.50
2019-02-23T07:59:54.965Z,-2.30
2019-02-23T08:02:27.964Z,-2.20
2019-02-23T08:05:00.905Z,-2.30
2019-02-23T08:07:33.694Z,-2.20
2019-02-23T08:10:06.848Z,-1.90
2019-02-23T08:12:39.967Z,-1.70
2019-02-23T08:15:12.741Z,-1.70
2019-02-23T08:17:45.513Z,-1.30
2019-02-23T08:20:18.278Z,-1.30
2019-02-23T08:22:51.115Z,-1.30
2019-02-23T08:25:24.592Z,-1.20
2019-02-23T08:27:57.530Z,-1.10
2019-02-23T08:30:30.391Z,-1.40
2019-02-23T08:33:03.278Z,-1.40
2019-02-23T08:35:36.210Z,-1.20
2019-02-23T08:38:09.153Z,-1.30
2019-02-23T08:40:42.344Z,-1.20
2019-02-23T08:43:15.284Z,-0.90
2019-02-23T08:45:48.204Z,-0.60
2019-02-23T08:48:21.327Z,-0.20
2019-02-23T08:50:54.552Z,-0.10
2019-02-23T08:53:27.503Z,0.10
2019-02-23T08:56:00.429Z,0.30
2019-02-23T08:58:33.389Z,0.70
2019-02-23T09:01:06.332Z,1.00
2019-02-23T09:03:39.229Z,1.30
2019-02-23T09:06:12.688Z,1.50
2019-02-23T09:08:45.537Z,1.50
2019-02-23T09:11:19.455Z,1.70
2019-02-23T09:13:52.954Z,1.80
2019-02-23T09:16:25.669Z,1.90
2019-02-23T09:18:58.545Z,1.90
2019-02-23T09:21:31.400Z,2.30
2019-02-23T09:24:04.265Z,2.40
2019-02-23T09:26:37.207Z,2.20
2019-02-23T09:29:10.144Z,2.40
2019-02-23T09:31:43.269Z,2.60
2019-02-23T09:34:16.324Z,2.60
2019-02-23T09:36:50.326Z,2.60
2019-02-23T09:39:23.270Z,2.70
2019-02-23T09:42:07.012Z,2.50
2019-02-23T09:44:30.624Z,2.30
2019-02-23T09:47:03.545Z,2.20
2019-02-23T09:49:36.410Z,2.10
2019-02-23T09:52:09.604Z,1.90
2019-02-23T09:54:42.406Z,1.80
2019-02-23T09:57:15.426Z,1.70
2019-02-23T09:59:48.450Z,1.50
2019-02-23T10:02:21.347Z,1.60
2019-02-23T10:04:54.604Z,1.90
2019-02-23T10:07:27.665Z,2.00
2019-02-23T10:10:00.704Z,2.20
2019-02-23T10:12:33.486Z,2.30
2019-02-23T10:15:06.463Z,2.40
2019-02-23T10:17:39.345Z,2.50
2019-02-23T10:20:12.230Z,2.40
2019-02-23T10:22:44.965Z,2.30
2019-02-23T10:25:20.127Z,2.20
2019-02-23T10:27:53.264Z,2.20
2019-02-23T10:30:26.155Z,2.10
2019-02-23T10:32:59.088Z,2.30
2019-02-23T10:35:32.143Z,2.70
2019-02-23T10:38:04.984Z,2.90
2019-02-23T10:40:38.085Z,2.40
2019-02-23T10:43:11.465Z,2.80
2019-02-23T10:45:44.532Z,2.70
2019-02-23T10:48:17.444Z,2.50
2019-02-23T10:50:50.587Z,2.20
2019-02-23T10:53:32.641Z,2.30
2019-02-23T10:55:58.311Z,2.40
2019-02-23T10:58:31.347Z,2.50
2019-02-23T11:01:06.831Z,2.50
2019-02-23T11:03:38.787Z,2.20
2019-02-23T11:06:11.827Z,2.40
2019-02-23T11:08:44.868Z,2.40
2019-02-23T11:11:17.768Z,2.60
2019-02-23T11:13:51.187Z,2.50
2019-02-23T11:16:24.104Z,2.50
2019-02-23T11:18:56.924Z,2.70
2019-02-23T11:21:29.979Z,2.80
2019-02-23T11:24:02.804Z,3.10
2019-02-23T11:26:35.911Z,3.20
2019-02-23T11:29:11.810Z,3.30
2019-02-23T11:31:44.765Z,3.20
2019-02-23T11:34:18.124Z,3.10
2019-02-23T11:36:51.194Z,3.10
2019-02-23T11:39:30.169Z,3.30
2019-02-23T11:42:02.850Z,3.40
2019-02-23T11:44:36.284Z,3.30
2019-02-23T11:47:09.264Z,3.30
2019-02-23T11:49:42.185Z,3.40
2019-02-23T11:52:15.765Z,3.30
2019-02-23T11:54:48.806Z,3.30
2019-02-23T11:57:22.704Z,3.50
2019-02-23T11:59:56.264Z,3.50
2019-02-23T12:02:30.584Z,3.40
2019-02-23T12:05:03.595Z,3.40
2019-02-23T12:07:36.704Z,3.60
2019-02-23T12:10:09.466Z,3.50
2019-02-23T12:12:42.232Z,3.20
2019-02-23T12:15:15.113Z,3.00
2019-02-23T12:17:48.245Z,2.90
2019-02-23T12:20:21.003Z,3.00
2019-02-23T12:22:53.904Z,2.90
2019-02-23T12:25:27.185Z,3.00
2019-02-23T12:28:01.796Z,3.00
2019-02-23T12:30:34.845Z,3.20
2019-02-23T12:33:07.954Z,3.20
2019-02-23T12:35:40.986Z,3.40
2019-02-23T12:38:13.865Z,3.50
2019-02-23T12:40:46.793Z,3.60
2019-02-23T12:43:19.769Z,3.40
2019-02-23T12:45:53.013Z,3.50
2019-02-23T12:48:26.073Z,3.60
2019-02-23T12:50:58.978Z,3.60
2019-02-23T12:53:31.807Z,3.90
2019-02-23T12:56:05.564Z,3.90
2019-02-23T12:58:39.005Z,4.20
2019-02-23T13:01:12.107Z,4.30
2019-02-23T13:03:45.068Z,4.40
2019-02-23T13:06:18.009Z,4.60
2019-02-23T13:08:50.948Z,4.70
2019-02-23T13:11:24.045Z,4.60
2019-02-23T13:13:56.984Z,4.70
2019-02-23T13:16:48.805Z,4.60
2019-02-23T13:19:21.984Z,4.10
2019-02-23T13:21:55.345Z,4.00
2019-02-23T13:24:28.750Z,4.20
2019-02-23T13:27:02.206Z,4.70
2019-02-23T13:29:35.159Z,4.40
2019-02-23T13:32:07.998Z,4.10
2019-02-23T13:34:40.868Z,3.90
2019-02-23T13:37:13.889Z,4.00
2019-02-23T13:39:46.986Z,4.00
2019-02-23T13:42:20.055Z,3.90
2019-02-23T13:44:53.345Z,3.80
2019-02-23T13:47:26.965Z,3.90
2019-02-23T13:49:59.904Z,3.60
2019-02-23T13:52:32.745Z,3.30
2019-02-23T13:55:05.506Z,3.30
2019-02-23T13:57:38.250Z,3.50
2019-02-23T14:00:11.069Z,3.70
2019-02-23T14:02:44.119Z,3.60
2019-02-23T14:05:17.222Z,3.60
2019-02-23T14:07:50.246Z,3.50
2019-02-23T14:10:23.047Z,3.60
2019-02-23T14:12:56.096Z,3.40
2019-02-23T14:15:29.130Z,3.30
2019-02-23T14:18:01.812Z,3.10
2019-02-23T14:20:34.789Z,3.40
2019-02-23T14:23:07.705Z,3.10
2019-02-23T14:25:42.964Z,3.20
2019-02-23T14:28:15.803Z,3.20
2019-02-23T14:30:48.703Z,3.00
2019-02-23T14:33:21.489Z,3.00
2019-02-23T14:35:54.364Z,2.70
2019-02-23T14:38:28.045Z,2.70
2019-02-23T14:41:01.021Z,2.70
2019-02-23T14:43:33.959Z,2.80
2019-02-23T14:46:06.708Z,2.80
2019-02-23T14:48:40.232Z,2.80
2019-02-23T14:51:13.535Z,2.80
2019-02-23T14:53:47.179Z,2.90
2019-02-23T14:56:20.068Z,2.90
2019-02-23T14:58:53.281Z,2.60
2019-02-23T15:01:26.070Z,2.40
2019-02-23T15:03:58.964Z,2.10
2019-02-23T15:06:31.899Z,2.20
2019-02-23T15:09:04.746Z,2.30
2019-02-23T15:11:37.684Z,2.30
2019-02-23T15:14:10.984Z,2.20
2019-02-23T15:16:43.844Z,2.10
2019-02-23T15:19:16.866Z,2.10
2019-02-23T15:21:50.064Z,2.30
2019-02-23T15:24:23.145Z,2.30
2019-02-23T15:26:56.204Z,2.30
2019-02-23T15:29:29.213Z,2.00
2019-02-23T15:32:02.152Z,2.10
2019-02-23T15:34:35.474Z,2.00
2019-02-23T15:37:08.338Z,2.00
2019-02-23T15:39:41.282Z,2.00
2019-02-23T15:42:14.525Z,1.60
2019-02-23T15:44:47.467Z,1.70
2019-02-23T15:47:20.389Z,1.80
2019-02-23T15:49:55.777Z,1.70
2019-02-23T15:52:28.686Z,1.60
2019-02-23T15:55:01.550Z,1.60
2019-02-23T15:57:34.487Z,1.70
2019-02-23T16:00:07.485Z,1.60
2019-02-23T16:02:41.680Z,1.50
2019-02-23T16:05:14.608Z,1.50
2019-02-23T16:07:49.725Z,1.50
2019-02-23T16:10:22.707Z,1.40
2019-02-23T16:12:55.688Z,1.20
2019-02-23T16:15:29.267Z,1.10
2019-02-23T16:18:02.249Z,1.10
2019-02-23T16:20:35.171Z,1.10
2019-02-23T16:23:08.002Z,0.90
2019-02-23T16:25:40.955Z,0.90
2019-02-23T16:28:13.927Z,0.90
2019-02-23T16:30:46.750Z,0.60
2019-02-23T16:33:19.747Z,0.60
2019-02-23T16:35:52.668Z,0.60
2019-02-23T16:38:25.667Z,0.40
2019-02-23T16:40:58.447Z,0.50
2019-02-23T16:43:31.528Z,0.50
2019-02-23T16:46:04.448Z,0.40
2019-02-23T16:48:37.268Z,0.20
2019-02-23T16:51:10.186Z,0.20
2019-02-23T16:53:43.310Z,0.20
2019-02-23T16:56:16.151Z,0.10
2019-02-23T16:58:49.115Z,0.10
2019-02-23T17:01:21.969Z,0.00
2019-02-23T17:03:54.926Z,-0.10
2019-02-23T17:06:27.688Z,-0.10
2019-02-23T17:09:00.725Z,0.10
2019-02-23T17:11:33.714Z,-0.20
2019-02-23T17:14:07.087Z,-0.10
2019-02-23T17:16:39.928Z,-0.20
2019-02-23T17:19:12.732Z,-0.40
2019-02-23T17:21:45.562Z,-0.40
2019-02-23T17:24:18.402Z,-0.50
2019-02-23T17:26:52.710Z,-0.40
2019-02-23T17:29:25.617Z,-0.70
2019-02-23T17:31:59.486Z,-0.80
2019-02-23T17:34:32.356Z,-0.90
2019-02-23T17:37:05.507Z,-0.60
2019-02-23T17:39:38.386Z,-0.40
2019-02-23T17:42:11.248Z,-0.60
2019-02-23T17:44:44.148Z,-0.50
2019-02-23T17:47:16.925Z,-0.50
2019-02-23T17:49:50.485Z,-0.70
2019-02-23T17:52:23.785Z,-0.60
2019-02-23T17:54:57.685Z,-0.70
2019-02-23T17:57:30.966Z,-0.90
2019-02-23T18:00:03.967Z,-0.60
2019-02-23T18:02:37.985Z,-0.70
2019-02-23T18:05:11.405Z,-0.70
2019-02-23T18:07:44.296Z,-0.70
2019-02-23T18:10:17.564Z,-1.10
2019-02-23T18:12:51.776Z,-1.10
2019-02-23T18:15:24.808Z,-1.20
2019-02-23T18:17:57.614Z,-1.10
2019-02-23T18:20:30.458Z,-1.20
2019-02-23T18:23:03.231Z,-1.20
2019-02-23T18:25:36.127Z,-1.10
2019-02-23T18:28:09.066Z,-1.10
2019-02-23T18:30:41.995Z,-1.20
2019-02-23T18:33:14.723Z,-1.30
2019-02-23T18:35:47.480Z,-1.50
2019-02-23T18:38:20.587Z,-1.50
2019-02-23T18:40:53.871Z,-1.70
2019-02-23T18:43:27.428Z,-1.80
2019-02-23T18:46:00.948Z,-1.70
2019-02-23T18:48:33.708Z,-1.60
2019-02-23T18:51:06.567Z,-1.70
2019-02-23T18:53:39.425Z,-1.90
2019-02-23T18:56:13.355Z,-1.80
2019-02-23T18:58:46.284Z,-1.60
2019-02-23T19:01:19.176Z,-1.80
2019-02-23T19:03:52.225Z,-1.80
2019-02-23T19:06:25.109Z,-1.80
2019-02-23T19:08:58.035Z,-2.00
2019-02-23T19:11:31.205Z,-2.00
2019-02-23T19:14:04.004Z,-2.10
2019-02-23T19:16:37.027Z,-2.00
2019-02-23T19:19:10.284Z,-2.00
2019-02-23T19:21:43.485Z,-2.00
2019-02-23T19:24:16.519Z,-1.70
2019-02-23T19:26:49.446Z,-1.70
2019-02-23T19:29:22.387Z,-1.90
2019-02-23T19:31:55.506Z,-2.00
2019-02-23T19:34:28.291Z,-2.20
2019-02-23T19:37:01.287Z,-2.00
2019-02-23T19:39:34.148Z,-2.00
2019-02-23T19:42:07.167Z,-2.20
2019-02-23T19:44:40.068Z,-2.40
2019-02-23T19:47:12.908Z,-2.50
2019-02-23T19:49:46.047Z,-2.70
2019-02-23T19:52:19.269Z,-2.60
2019-02-23T19:54:52.983Z,-2.50
2019-02-23T19:57:26.148Z,-2.60
2019-02-23T19:59:59.029Z,-2.60
2019-02-23T20:02:32.634Z,-2.60
2019-02-23T20:05:06.053Z,-2.70
2019-02-23T20:07:39.305Z,-2.80
2019-02-23T20:10:12.345Z,-2.70
2019-02-23T20:12:45.636Z,-2.70
2019-02-23T20:15:18.649Z,-2.80
2019-02-23T20:17:52.225Z,-2.50
2019-02-23T20:20:25.127Z,-2.60
2019-02-23T20:22:58.107Z,-2.90
2019-02-23T20:25:31.128Z,-3.00
2019-02-23T20:28:04.105Z,-3.10
2019-02-23T20:30:36.905Z,-3.00
2019-02-23T20:33:13.433Z,-2.90
2019-02-23T20:35:47.287Z,-2.90
2019-02-23T20:38:20.265Z,-2.70
2019-02-23T20:40:53.107Z,-2.70
2019-02-23T20:43:27.399Z,-2.70
2019-02-23T20:46:00.691Z,-2.80
2019-02-23T20:48:33.667Z,-2.70
2019-02-23T20:51:06.667Z,-2.80
2019-02-23T20:53:39.667Z,-3.00
2019-02-23T20:56:13.023Z,-2.90
2019-02-23T20:58:46.305Z,-2.80
2019-02-23T21:01:19.445Z,-2.80
2019-02-23T21:03:52.564Z,-2.90
2019-02-23T21:06:25.546Z,-3.00
2019-02-23T21:08:59.765Z,-2.80
2019-02-23T21:11:33.963Z,-2.70
2019-02-23T21:14:07.004Z,-3.00
2019-02-23T21:16:40.186Z,-3.10
2019-02-23T21:19:13.386Z,-3.00
2019-02-23T21:21:46.663Z,-2.80
2019-02-23T21:24:19.523Z,-2.90
2019-02-23T21:26:52.405Z,-2.90
2019-02-23T21:29:25.805Z,-3.10
2019-02-23T21:31:58.784Z,-3.20
2019-02-23T21:34:31.665Z,-3.00
2019-02-23T21:37:04.885Z,-3.10
2019-02-23T21:39:38.346Z,-3.00
2019-02-23T21:42:11.487Z,-3.10
2019-02-23T21:44:44.605Z,-3.20
2019-02-23T21:47:17.864Z,-3.10
2019-02-23T21:49:50.784Z,-3.20
2019-02-23T21:52:24.206Z,-3.40
2019-02-23T21:54:57.257Z,-3.30
2019-02-23T21:57:30.405Z,-3.30
2019-02-23T22:00:03.447Z,-3.30
2019-02-23T22:02:36.267Z,-3.60
2019-02-23T22:05:12.475Z,-3.60
2019-02-23T22:07:43.677Z,-3.50
2019-02-23T22:10:16.746Z,-3.40
2019-02-23T22:12:49.724Z,-3.40
2019-02-23T22:15:22.969Z,-3.50
2019-02-23T22:17:55.768Z,-3.70
2019-02-23T22:20:28.906Z,-3.70
2019-02-23T22:23:02.231Z,-3.70
2019-02-23T22:25:37.166Z,-3.80
2019-02-23T22:28:09.806Z,-3.70
2019-02-23T22:30:42.894Z,-3.80
2019-02-23T22:33:16.022Z,-3.70
2019-02-23T22:35:48.786Z,-3.60
2019-02-23T22:38:21.823Z,-3.60
2019-02-23T22:40:54.804Z,-3.50
2019-02-23T22:43:28.304Z,-3.60
2019-02-23T22:46:01.386Z,-3.60
2019-02-23T22:48:34.885Z,-3.50
2019-02-23T22:51:07.805Z,-3.40
2019-02-23T22:53:40.965Z,-3.70
2019-02-23T22:56:14.144Z,-4.00
2019-02-23T22:58:47.145Z,-4.00
2019-02-23T23:01:20.104Z,-4.00
2019-02-23T23:03:53.069Z,-4.10
2019-02-23T23:06:26.027Z,-4.10
2019-02-23T23:08:59.364Z,-4.00
2019-02-23T23:11:32.805Z,-3.90
2019-02-23T23:14:06.124Z,-4.00
2019-02-23T23:16:39.205Z,-4.20
2019-02-23T23:19:12.423Z,-4.20
2019-02-23T23:21:45.664Z,-4.20
2019-02-23T23:24:18.625Z,-4.00
2019-02-23T23:26:53.183Z,-4.10
2019-02-23T23:29:25.945Z,-4.10
2019-02-23T23:31:59.466Z,-4.10
2019-02-23T23:34:32.485Z,-4.10
2019-02-23T23:37:05.464Z,-4.10
2019-02-23T23:39:38.425Z,-4.10
2019-02-23T23:42:11.665Z,-3.60
2019-02-23T23:44:44.546Z,-3.30
2019-02-23T23:47:17.465Z,-3.10
2019-02-23T23:49:50.605Z,-3.50
2019-02-23T23:52:23.525Z,-3.90
2019-02-23T23:54:56.726Z,-4.10
2019-02-23T23:57:29.984Z,-4.20
